createdAt,value
2019-01-24T00:01:45.911Z,-7.35
2019-01-24T00:04:16.743Z,-7.35
2019-01-24T00:06:41.076Z,-7.29
2019-01-24T00:09:07.914Z,-7.29
2019-01-24T00:11:34.790Z,-7.29
2019-01-24T00:14:01.864Z,-7.30
2019-01-24T00:16:28.507Z,-7.29
2019-01-24T00:18:55.268Z,-7.26
2019-01-24T00:21:21.902Z,-7.23
2019-01-24T00:23:48.490Z,-7.24
2019-01-24T00:26:15.096Z,-7.28
2019-01-24T00:28:42.287Z,-7.27
2019-01-24T00:31:09.491Z,-7.28
2019-01-24T00:33:36.132Z,-7.27
2019-01-24T00:36:02.953Z,-7.28
2019-01-24T00:38:29.570Z,-7.30
2019-01-24T00:40:56.246Z,-7.27
2019-01-24T00:43:22.983Z,-7.23
2019-01-24T00:45:49.742Z,-7.23
2019-01-24T00:48:16.272Z,-7.24
2019-01-24T00:50:43.592Z,-7.19
2019-01-24T00:53:10.352Z,-7.16
2019-01-24T00:55:37.205Z,-7.16
2019-01-24T00:58:04.224Z,-7.12
2019-01-24T01:00:30.872Z,-7.12
2019-01-24T01:02:57.411Z,-7.16
2019-01-24T01:05:24.059Z,-7.13
2019-01-24T01:07:51.076Z,-7.10
2019-01-24T01:10:17.789Z,-7.10
2019-01-24T01:12:44.457Z,-7.08
2019-01-24T01:15:16.165Z,-7.09
2019-01-24T01:17:43.359Z,-7.01
2019-01-24T01:20:15.318Z,-7.02
2019-01-24T01:22:42.121Z,-7.04
2019-01-24T01:25:10.019Z,-7.00
2019-01-24T01:27:36.704Z,-6.99
2019-01-24T01:30:06.006Z,-6.97
2019-01-24T01:32:32.631Z,-6.93
2019-01-24T01:34:59.160Z,-6.91
2019-01-24T01:37:25.833Z,-6.94
2019-01-24T01:39:52.379Z,-6.93
2019-01-24T01:42:18.924Z,-6.92
2019-01-24T01:44:46.120Z,-6.89
2019-01-24T01:47:12.648Z,-6.85
2019-01-24T01:49:40.092Z,-6.86
2019-01-24T01:52:06.995Z,-6.85
2019-01-24T01:54:33.569Z,-6.84
2019-01-24T01:57:00.315Z,-6.77
2019-01-24T01:59:26.923Z,-6.77
2019-01-24T02:01:53.502Z,-6.73
2019-01-24T02:04:20.072Z,-6.73
2019-01-24T02:06:46.981Z,-6.72
2019-01-24T02:09:13.570Z,-6.67
2019-01-24T02:11:40.196Z,-6.68
2019-01-24T02:14:06.837Z,-6.74
2019-01-24T02:16:33.845Z,-6.72
2019-01-24T02:19:00.574Z,-6.69
2019-01-24T02:21:28.483Z,-6.70
2019-01-24T02:23:54.997Z,-6.66
2019-01-24T02:26:21.499Z,-6.66
2019-01-24T02:28:48.017Z,-6.64
2019-01-24T02:31:14.615Z,-6.63
2019-01-24T02:33:41.144Z,-6.61
2019-01-24T02:36:07.862Z,-6.61
2019-01-24T02:38:34.678Z,-6.58
2019-01-24T02:41:01.330Z,-6.55
2019-01-24T02:43:27.856Z,-6.53
2019-01-24T02:45:54.448Z,-6.56
2019-01-24T02:48:20.987Z,-6.53
2019-01-24T02:50:47.919Z,-6.54
2019-01-24T02:53:14.448Z,-6.53
2019-01-24T02:55:41.056Z,-6.52
2019-01-24T02:58:07.625Z,-6.54
2019-01-24T03:00:34.175Z,-6.47
2019-01-24T03:03:00.836Z,-6.50
2019-01-24T03:05:27.420Z,-6.42
2019-01-24T03:07:53.947Z,-6.42
2019-01-24T03:10:20.639Z,-6.39
2019-01-24T03:12:47.807Z,-6.39
2019-01-24T03:15:19.282Z,-6.34
2019-01-24T03:17:46.184Z,-6.34
2019-01-24T03:20:13.123Z,-6.34
2019-01-24T03:22:39.707Z,-6.34
2019-01-24T03:25:06.824Z,-6.32
2019-01-24T03:27:33.597Z,-6.30
2019-01-24T03:30:00.445Z,-6.31
2019-01-24T03:32:27.288Z,-6.35
2019-01-24T03:34:53.931Z,-6.32
2019-01-24T03:37:20.538Z,-6.35
2019-01-24T03:39:47.118Z,-6.33
2019-01-24T03:42:13.629Z,-6.31
2019-01-24T03:44:40.350Z,-6.34
2019-01-24T03:47:06.937Z,-6.33
2019-01-24T03:49:33.469Z,-6.38
2019-01-24T03:51:59.965Z,-6.40
2019-01-24T03:54:26.475Z,-6.38
2019-01-24T03:56:53.552Z,-6.38
2019-01-24T03:59:20.268Z,-6.37
2019-01-24T04:01:47.058Z,-6.33
2019-01-24T04:04:14.075Z,-6.35
2019-01-24T04:06:41.015Z,-6.35
2019-01-24T04:09:07.727Z,-6.38
2019-01-24T04:11:34.213Z,-6.38
2019-01-24T04:14:00.745Z,-6.36
2019-01-24T04:16:27.660Z,-6.40
2019-01-24T04:18:54.773Z,-6.43
2019-01-24T04:21:21.246Z,-6.39
2019-01-24T04:23:47.849Z,-6.39
2019-01-24T04:26:14.982Z,-6.38
2019-01-24T04:28:41.469Z,-6.37
2019-01-24T04:31:07.972Z,-6.37
2019-01-24T04:33:34.509Z,-6.35
2019-01-24T04:36:01.064Z,-6.33
2019-01-24T04:38:27.822Z,-6.30
2019-01-24T04:40:54.497Z,-6.31
2019-01-24T04:43:21.592Z,-6.29
2019-01-24T04:45:48.273Z,-6.28
2019-01-24T04:48:16.062Z,-6.32
2019-01-24T04:50:42.589Z,-6.30
2019-01-24T04:53:09.630Z,-6.30
2019-01-24T04:55:37.453Z,-6.30
2019-01-24T04:58:04.012Z,-6.30
2019-01-24T05:00:30.800Z,-6.27
2019-01-24T05:02:57.736Z,-6.26
2019-01-24T05:05:28.039Z,-6.27
2019-01-24T05:07:52.713Z,-6.28
2019-01-24T05:10:19.810Z,-6.30
2019-01-24T05:12:46.308Z,-6.30
2019-01-24T05:15:14.023Z,-6.28
2019-01-24T05:17:40.551Z,-6.30
2019-01-24T05:20:08.931Z,-6.28
2019-01-24T05:22:35.466Z,-6.28
2019-01-24T05:25:02.263Z,-6.27
2019-01-24T05:27:30.866Z,-6.27
2019-01-24T05:29:57.405Z,-6.27
2019-01-24T05:32:23.929Z,-6.24
2019-01-24T05:34:50.509Z,-6.19
2019-01-24T05:37:19.505Z,-6.14
2019-01-24T05:39:46.172Z,-6.19
2019-01-24T05:42:13.767Z,-6.17
2019-01-24T05:44:40.500Z,-6.18
2019-01-24T05:47:07.038Z,-6.17
2019-01-24T05:49:33.866Z,-6.19
2019-01-24T05:52:00.460Z,-6.18
2019-01-24T05:54:26.962Z,-6.14
2019-01-24T05:56:55.578Z,-6.15
2019-01-24T05:59:22.234Z,-6.14
2019-01-24T06:01:49.653Z,-6.13
2019-01-24T06:04:16.290Z,-6.12
2019-01-24T06:06:45.923Z,-6.10
2019-01-24T06:09:12.421Z,-6.10
2019-01-24T06:11:39.335Z,-6.07
2019-01-24T06:14:06.011Z,-6.11
2019-01-24T06:16:33.142Z,-6.10
2019-01-24T06:18:59.919Z,-6.10
2019-01-24T06:21:26.526Z,-6.07
2019-01-24T06:23:53.058Z,-6.04
2019-01-24T06:26:20.005Z,-6.06
2019-01-24T06:28:46.793Z,-6.04
2019-01-24T06:31:13.342Z,-6.01
2019-01-24T06:33:39.893Z,-6.02
2019-01-24T06:36:06.433Z,-6.02
2019-01-24T06:38:33.292Z,-5.99
2019-01-24T06:40:59.845Z,-5.97
2019-01-24T06:43:26.420Z,-5.98
2019-01-24T06:45:55.058Z,-6.01
2019-01-24T06:48:21.595Z,-6.01
2019-01-24T06:50:54.520Z,-6.03
2019-01-24T06:53:21.286Z,-6.01
2019-01-24T06:55:48.398Z,-5.99
2019-01-24T06:58:14.982Z,-6.00
2019-01-24T07:00:41.506Z,-5.99
2019-01-24T07:03:08.019Z,-5.99
2019-01-24T07:05:35.237Z,-5.96
2019-01-24T07:08:01.812Z,-5.98
2019-01-24T07:10:28.622Z,-5.96
2019-01-24T07:12:55.198Z,-5.95
2019-01-24T07:15:22.460Z,-5.99
2019-01-24T07:17:49.128Z,-5.98
2019-01-24T07:20:16.877Z,-5.98
2019-01-24T07:22:43.526Z,-5.98
2019-01-24T07:25:13.500Z,-5.97
2019-01-24T07:27:40.646Z,-5.96
2019-01-24T07:30:09.602Z,-5.94
2019-01-24T07:32:36.547Z,-5.91
2019-01-24T07:35:04.815Z,-5.91
2019-01-24T07:37:31.555Z,-5.90
2019-01-24T07:39:58.113Z,-5.88
2019-01-24T07:42:29.307Z,-5.84
2019-01-24T07:44:55.937Z,-5.81
2019-01-24T07:47:22.950Z,-5.79
2019-01-24T07:49:49.449Z,-5.78
2019-01-24T07:52:17.457Z,-5.76
2019-01-24T07:54:44.345Z,-5.76
2019-01-24T07:57:10.900Z,-5.74
2019-01-24T07:59:37.957Z,-5.73
2019-01-24T08:02:04.610Z,-5.71
2019-01-24T08:04:31.275Z,-5.70
2019-01-24T08:06:58.151Z,-5.64
2019-01-24T08:09:24.792Z,-5.61
2019-01-24T08:11:51.479Z,-5.56
2019-01-24T08:14:18.379Z,-5.56
2019-01-24T08:16:45.446Z,-5.53
2019-01-24T08:19:12.179Z,-5.49
2019-01-24T08:21:38.803Z,-5.50
2019-01-24T08:24:05.433Z,-5.50
2019-01-24T08:26:32.251Z,-5.48
2019-01-24T08:28:59.043Z,-5.47
2019-01-24T08:31:27.533Z,-5.49
2019-01-24T08:33:54.263Z,-5.43
2019-01-24T08:36:20.982Z,-5.34
2019-01-24T08:38:50.335Z,-5.28
2019-01-24T08:41:17.210Z,-5.28
2019-01-24T08:43:43.893Z,-5.22
2019-01-24T08:46:20.303Z,-5.16
2019-01-24T08:48:47.397Z,-5.03
2019-01-24T08:51:13.935Z,-4.96
2019-01-24T08:53:40.482Z,-4.87
2019-01-24T08:56:07.482Z,-4.76
2019-01-24T08:58:34.268Z,-4.71
2019-01-24T09:01:00.774Z,-4.69
2019-01-24T09:03:27.787Z,-4.63
2019-01-24T09:05:54.401Z,-4.49
2019-01-24T09:08:20.928Z,-4.45
2019-01-24T09:10:47.627Z,-4.40
2019-01-24T09:13:14.161Z,-4.33
2019-01-24T09:15:40.636Z,-4.28
2019-01-24T09:18:07.871Z,-4.10
2019-01-24T09:20:34.841Z,-4.10
2019-01-24T09:23:01.871Z,-3.98
2019-01-24T09:25:28.775Z,-3.93
2019-01-24T09:27:55.459Z,-3.88
2019-01-24T09:30:23.261Z,-3.79
2019-01-24T09:32:49.826Z,-3.80
2019-01-24T09:35:16.502Z,-3.76
2019-01-24T09:37:43.056Z,-3.70
2019-01-24T09:40:10.824Z,-3.59
2019-01-24T09:42:39.448Z,-3.70
2019-01-24T09:45:08.919Z,-3.74
2019-01-24T09:47:35.450Z,-3.68
2019-01-24T09:50:06.305Z,-3.53
2019-01-24T09:52:33.190Z,-3.55
2019-01-24T09:54:59.832Z,-3.50
2019-01-24T09:57:26.777Z,-3.46
2019-01-24T09:59:53.501Z,-3.45
2019-01-24T10:02:20.339Z,-3.41
2019-01-24T10:04:47.069Z,-3.42
2019-01-24T10:07:13.654Z,-3.43
2019-01-24T10:09:40.535Z,-3.48
2019-01-24T10:12:07.574Z,-3.42
2019-01-24T10:14:34.462Z,-3.35
2019-01-24T10:17:00.955Z,-3.37
2019-01-24T10:19:27.662Z,-3.24
2019-01-24T10:21:54.201Z,-3.22
2019-01-24T10:24:21.352Z,-3.25
2019-01-24T10:26:47.930Z,-3.20
2019-01-24T10:29:14.575Z,-3.30
2019-01-24T10:31:41.280Z,-3.19
2019-01-24T10:34:07.961Z,-3.21
2019-01-24T10:36:43.113Z,-3.22
2019-01-24T10:39:09.062Z,-3.13
2019-01-24T10:41:35.556Z,-3.15
2019-01-24T10:44:02.367Z,-3.18
2019-01-24T10:46:29.251Z,-3.27
2019-01-24T10:48:57.123Z,-3.22
2019-01-24T10:51:27.011Z,-3.25
2019-01-24T10:53:53.575Z,-3.17
2019-01-24T10:56:20.394Z,-3.14
2019-01-24T10:58:47.036Z,-3.13
2019-01-24T11:01:13.779Z,-3.05
2019-01-24T11:03:40.428Z,-3.08
2019-01-24T11:06:24.936Z,-3.00
2019-01-24T11:08:55.355Z,-2.89
2019-01-24T11:11:22.620Z,-2.74
2019-01-24T11:13:49.251Z,-2.80
2019-01-24T11:16:15.739Z,-2.79
2019-01-24T11:18:42.368Z,-2.80
2019-01-24T11:21:09.063Z,-2.89
2019-01-24T11:23:35.927Z,-2.89
2019-01-24T11:26:03.686Z,-2.97
2019-01-24T11:28:30.640Z,-2.88
2019-01-24T11:30:57.287Z,-2.83
2019-01-24T11:33:24.056Z,-2.79
2019-01-24T11:35:51.082Z,-2.87
2019-01-24T11:38:17.727Z,-2.76
2019-01-24T11:40:48.433Z,-2.73
2019-01-24T11:43:15.491Z,-2.61
2019-01-24T11:45:42.961Z,-2.63
2019-01-24T11:48:09.900Z,-2.66
2019-01-24T11:50:36.479Z,-2.50
2019-01-24T11:53:03.915Z,-2.68
2019-01-24T11:55:30.538Z,-2.50
2019-01-24T11:57:57.439Z,-2.62
2019-01-24T12:00:32.196Z,-2.67
2019-01-24T12:02:58.780Z,-2.61
2019-01-24T12:05:25.547Z,-2.59
2019-01-24T12:07:52.238Z,-2.71
2019-01-24T12:10:20.553Z,-2.67
2019-01-24T12:12:47.068Z,-2.74
2019-01-24T12:15:15.388Z,-2.80
2019-01-24T12:17:42.245Z,-2.69
2019-01-24T12:20:11.930Z,-2.71
2019-01-24T12:22:38.466Z,-2.72
2019-01-24T12:25:05.761Z,-2.74
2019-01-24T12:27:32.518Z,-2.91
2019-01-24T12:29:59.247Z,-2.85
2019-01-24T12:32:26.359Z,-2.88
2019-01-24T12:34:52.878Z,-2.89
2019-01-24T12:37:19.474Z,-2.80
2019-01-24T12:39:46.305Z,-2.75
2019-01-24T12:42:12.791Z,-2.67
2019-01-24T12:44:39.352Z,-2.66
2019-01-24T12:47:05.868Z,-2.59
2019-01-24T12:49:32.513Z,-2.74
2019-01-24T12:51:58.988Z,-2.68
2019-01-24T12:54:25.833Z,-2.60
2019-01-24T12:56:52.682Z,-2.61
2019-01-24T12:59:19.635Z,-2.70
2019-01-24T13:01:46.131Z,-2.76
2019-01-24T13:04:12.883Z,-2.83
2019-01-24T13:06:39.682Z,-2.77
2019-01-24T13:09:06.727Z,-2.82
2019-01-24T13:11:35.688Z,-2.89
2019-01-24T13:14:02.614Z,-2.95
2019-01-24T13:16:29.252Z,-2.89
2019-01-24T13:18:56.072Z,-3.00
2019-01-24T13:21:22.693Z,-2.95
2019-01-24T13:23:49.184Z,-2.99
2019-01-24T13:26:15.981Z,-2.95
2019-01-24T13:28:43.035Z,-2.97
2019-01-24T13:31:10.300Z,-2.98
2019-01-24T13:33:37.036Z,-3.02
2019-01-24T13:36:06.596Z,-3.00
2019-01-24T13:38:33.552Z,-2.98
2019-01-24T13:41:00.368Z,-2.97
2019-01-24T13:43:29.322Z,-2.99
2019-01-24T13:45:55.864Z,-3.09
2019-01-24T13:48:22.453Z,-3.10
2019-01-24T13:50:49.060Z,-3.07
2019-01-24T13:53:15.655Z,-3.17
2019-01-24T13:55:42.524Z,-3.12
2019-01-24T13:58:09.553Z,-3.10
2019-01-24T14:00:38.150Z,-3.12
2019-01-24T14:03:17.409Z,-3.08
2019-01-24T14:05:44.013Z,-3.14
2019-01-24T14:08:10.875Z,-3.16
2019-01-24T14:10:37.626Z,-3.08
2019-01-24T14:13:04.535Z,-3.18
2019-01-24T14:15:31.554Z,-3.32
2019-01-24T14:17:58.388Z,-3.34
2019-01-24T14:20:24.946Z,-3.34
2019-01-24T14:22:51.972Z,-3.23
2019-01-24T14:25:18.618Z,-3.26
2019-01-24T14:27:45.424Z,-3.27
2019-01-24T14:30:15.548Z,-3.20
2019-01-24T14:36:25.464Z,-3.32
2019-01-24T14:38:50.421Z,-3.37
2019-01-24T14:41:16.924Z,-3.35
2019-01-24T14:43:43.642Z,-3.42
2019-01-24T14:46:10.188Z,-3.49
2019-01-24T14:48:36.826Z,-3.49
2019-01-24T14:51:04.627Z,-3.50
2019-01-24T14:53:31.185Z,-3.50
2019-01-24T14:55:58.022Z,-3.47
2019-01-24T14:58:24.669Z,-3.49
2019-01-24T15:01:02.110Z,-3.50
2019-01-24T15:03:29.531Z,-3.54
2019-01-24T15:05:56.401Z,-3.52
2019-01-24T15:08:24.286Z,-3.56
2019-01-24T15:10:52.919Z,-3.54
2019-01-24T15:13:19.586Z,-3.60
2019-01-24T15:15:46.200Z,-3.62
2019-01-24T15:18:12.896Z,-3.59
2019-01-24T15:20:39.672Z,-3.61
2019-01-24T15:23:07.380Z,-3.62
2019-01-24T15:25:34.049Z,-3.65
2019-01-24T15:28:00.617Z,-3.68
2019-01-24T15:30:27.766Z,-3.72
2019-01-24T15:32:54.595Z,-3.72
2019-01-24T15:35:21.089Z,-3.72
2019-01-24T15:37:54.080Z,-3.70
2019-01-24T15:40:18.728Z,-3.72
2019-01-24T15:42:45.385Z,-3.74
2019-01-24T15:45:12.507Z,-3.75
2019-01-24T15:47:39.146Z,-3.76
2019-01-24T15:50:07.201Z,-3.79
2019-01-24T15:52:34.236Z,-3.81
2019-01-24T15:55:01.973Z,-3.81
2019-01-24T15:57:28.905Z,-3.83
2019-01-24T15:59:56.581Z,-3.85
2019-01-24T16:02:23.361Z,-3.85
2019-01-24T16:04:49.948Z,-3.84
2019-01-24T16:07:16.800Z,-3.81
2019-01-24T16:09:43.363Z,-3.84
2019-01-24T16:12:09.881Z,-3.87
2019-01-24T16:14:36.463Z,-3.86
2019-01-24T16:17:03.424Z,-3.87
2019-01-24T16:19:30.261Z,-3.86
2019-01-24T16:21:56.819Z,-3.88
2019-01-24T16:24:23.491Z,-3.89
2019-01-24T16:26:50.126Z,-3.87
2019-01-24T16:29:16.630Z,-3.83
2019-01-24T16:31:43.425Z,-3.83
2019-01-24T16:34:10.444Z,-3.82
2019-01-24T16:36:36.970Z,-3.84
2019-01-24T16:39:07.092Z,-3.84
2019-01-24T16:41:33.775Z,-3.87
2019-01-24T16:44:00.348Z,-3.86
2019-01-24T16:46:26.960Z,-3.86
2019-01-24T16:48:53.618Z,-3.90
2019-01-24T16:51:21.644Z,-3.90
2019-01-24T16:53:48.346Z,-3.91
2019-01-24T16:56:19.478Z,-3.92
2019-01-24T16:58:46.243Z,-3.91
2019-01-24T17:01:22.265Z,-3.92
2019-01-24T17:03:49.015Z,-3.93
2019-01-24T17:06:16.026Z,-3.93
2019-01-24T17:08:43.336Z,-3.96
2019-01-24T17:11:10.247Z,-3.96
2019-01-24T17:13:36.879Z,-3.93
2019-01-24T17:16:03.919Z,-3.95
2019-01-24T17:18:30.732Z,-3.95
2019-01-24T17:20:57.336Z,-3.94
2019-01-24T17:23:23.996Z,-3.93
2019-01-24T17:25:50.608Z,-3.96
2019-01-24T17:28:17.227Z,-3.99
2019-01-24T17:30:44.062Z,-3.93
2019-01-24T17:33:10.691Z,-3.87
2019-01-24T17:35:37.208Z,-3.81
2019-01-24T17:38:04.011Z,-3.76
2019-01-24T17:40:30.821Z,-3.79
2019-01-24T17:42:57.599Z,-3.83
2019-01-24T17:45:24.647Z,-3.82
2019-01-24T17:47:51.346Z,-3.83
2019-01-24T17:50:18.034Z,-3.83
2019-01-24T17:52:44.726Z,-3.90
2019-01-24T17:55:17.142Z,-3.88
2019-01-24T17:57:44.073Z,-3.87
2019-01-24T18:00:15.233Z,-3.89
2019-01-24T18:02:42.920Z,-3.86
2019-01-24T18:05:10.236Z,-3.84
2019-01-24T18:07:36.835Z,-3.86
2019-01-24T18:10:14.055Z,-3.93
2019-01-24T18:12:36.495Z,-3.98
2019-01-24T18:15:06.501Z,-3.99
2019-01-24T18:17:33.025Z,-3.98
2019-01-24T18:19:59.863Z,-3.97
2019-01-24T18:22:26.580Z,-3.98
2019-01-24T18:24:53.120Z,-3.95
2019-01-24T18:27:19.995Z,-3.95
2019-01-24T18:29:46.532Z,-3.96
2019-01-24T18:32:13.408Z,-3.94
2019-01-24T18:34:40.086Z,-3.92
2019-01-24T18:37:06.822Z,-3.91
2019-01-24T18:39:33.365Z,-3.92
2019-01-24T18:42:00.921Z,-3.90
2019-01-24T18:44:27.682Z,-3.92
2019-01-24T18:46:54.288Z,-3.91
2019-01-24T18:49:21.577Z,-3.93
2019-01-24T18:51:48.165Z,-3.93
2019-01-24T18:54:14.771Z,-4.02
2019-01-24T18:56:41.679Z,-4.09
2019-01-24T18:59:08.624Z,-4.19
2019-01-24T19:01:35.457Z,-4.27
2019-01-24T19:04:02.017Z,-4.29
2019-01-24T19:06:29.599Z,-4.25
2019-01-24T19:08:56.294Z,-4.22
2019-01-24T19:11:27.159Z,-4.27
2019-01-24T19:13:57.045Z,-4.27
2019-01-24T19:16:24.921Z,-4.28
2019-01-24T19:18:53.958Z,-4.28
2019-01-24T19:21:26.842Z,-4.26
2019-01-24T19:23:56.789Z,-4.25
2019-01-24T19:26:23.356Z,-4.22
2019-01-24T19:28:50.102Z,-4.21
2019-01-24T19:31:16.812Z,-4.20
2019-01-24T19:33:46.308Z,-4.27
2019-01-24T19:36:15.999Z,-4.27
2019-01-24T19:38:45.174Z,-4.29
2019-01-24T19:41:14.470Z,-4.33
2019-01-24T19:43:43.752Z,-4.36
2019-01-24T19:46:10.621Z,-4.40
2019-01-24T19:48:40.576Z,-4.39
2019-01-24T19:51:07.392Z,-4.36
2019-01-24T19:53:34.966Z,-4.35
2019-01-24T19:56:06.139Z,-4.31
2019-01-24T19:58:37.578Z,-4.34
2019-01-24T20:01:09.877Z,-4.36
2019-01-24T20:03:37.152Z,-4.42
2019-01-24T20:06:10.157Z,-4.45
2019-01-24T20:08:36.995Z,-4.48
2019-01-24T20:11:06.864Z,-4.52
2019-01-24T20:13:36.845Z,-4.52
2019-01-24T20:16:07.215Z,-4.53
2019-01-24T20:18:37.034Z,-4.55
2019-01-24T20:21:06.891Z,-4.58
2019-01-24T20:23:37.013Z,-4.62
2019-01-24T20:26:09.825Z,-4.64
2019-01-24T20:28:37.819Z,-4.68
2019-01-24T20:31:08.352Z,-4.70
2019-01-24T20:33:36.385Z,-4.72
2019-01-24T20:36:07.811Z,-4.72
2019-01-24T20:38:37.919Z,-4.70
2019-01-24T20:41:05.177Z,-4.71
2019-01-24T20:43:36.858Z,-4.76
2019-01-24T20:46:04.285Z,-4.78
2019-01-24T20:48:34.323Z,-4.83
2019-01-24T20:51:04.170Z,-4.86
2019-01-24T20:53:31.559Z,-4.88
2019-01-24T20:55:58.342Z,-4.90
2019-01-24T20:58:33.914Z,-4.91
2019-01-24T21:01:06.600Z,-4.93
2019-01-24T21:03:35.485Z,-4.94
2019-01-24T21:06:04.310Z,-4.92
2019-01-24T21:08:34.192Z,-4.91
2019-01-24T21:11:00.658Z,-4.93
2019-01-24T21:13:29.667Z,-4.95
2019-01-24T21:15:58.433Z,-4.99
2019-01-24T21:18:25.457Z,-4.98
2019-01-24T21:20:55.499Z,-4.97
2019-01-24T21:23:25.243Z,-4.97
2019-01-24T21:25:54.490Z,-4.98
2019-01-24T21:28:24.344Z,-4.99
2019-01-24T21:30:55.450Z,-4.99
2019-01-24T21:33:24.703Z,-4.99
2019-01-24T21:35:54.766Z,-5.00
2019-01-24T21:38:21.859Z,-5.01
2019-01-24T21:40:50.245Z,-5.00
2019-01-24T21:43:25.530Z,-5.00
2019-01-24T21:45:53.268Z,-5.03
2019-01-24T21:48:20.002Z,-5.08
2019-01-24T21:50:46.751Z,-5.09
2019-01-24T21:53:13.413Z,-5.11
2019-01-24T21:55:40.236Z,-5.11
2019-01-24T21:58:07.562Z,-5.14
2019-01-24T22:00:34.280Z,-5.14
2019-01-24T22:03:00.987Z,-5.15
2019-01-24T22:05:30.636Z,-5.17
2019-01-24T22:07:57.310Z,-5.19
2019-01-24T22:10:25.249Z,-5.20
2019-01-24T22:12:52.218Z,-5.22
2019-01-24T22:15:20.815Z,-5.21
2019-01-24T22:17:49.562Z,-5.21
2019-01-24T22:20:16.695Z,-5.25
2019-01-24T22:22:43.711Z,-5.27
2019-01-24T22:25:15.926Z,-5.30
2019-01-24T22:27:42.543Z,-5.36
2019-01-24T22:30:13.577Z,-5.39
2019-01-24T22:32:40.121Z,-5.40
2019-01-24T22:35:06.937Z,-5.42
2019-01-24T22:37:33.916Z,-5.41
2019-01-24T22:40:00.994Z,-5.37
2019-01-24T22:42:27.801Z,-5.36
2019-01-24T22:44:55.902Z,-5.32
2019-01-24T22:47:22.568Z,-5.31
2019-01-24T22:49:49.132Z,-5.31
2019-01-24T22:52:16.062Z,-5.30
2019-01-24T22:54:42.735Z,-5.32
2019-01-24T22:57:09.227Z,-5.40
2019-01-24T22:59:36.950Z,-5.47
2019-01-24T23:02:25.938Z,-5.54
2019-01-24T23:04:52.543Z,-5.55
2019-01-24T23:07:19.530Z,-5.61
2019-01-24T23:09:46.422Z,-5.65
2019-01-24T23:12:13.063Z,-5.66
2019-01-24T23:14:39.608Z,-5.65
2019-01-24T23:17:06.967Z,-5.64
2019-01-24T23:19:33.618Z,-5.63
2019-01-24T23:22:00.231Z,-5.61
2019-01-24T23:24:28.885Z,-5.59
2019-01-24T23:26:55.495Z,-5.60
2019-01-24T23:29:22.117Z,-5.60
2019-01-24T23:31:49.825Z,-5.61
2019-01-24T23:34:16.951Z,-5.64
2019-01-24T23:36:43.903Z,-5.64
2019-01-24T23:39:10.759Z,-5.63
2019-01-24T23:41:37.523Z,-5.61
2019-01-24T23:44:04.784Z,-5.60
2019-01-24T23:46:31.364Z,-5.62
2019-01-24T23:48:57.853Z,-5.61
2019-01-24T23:51:24.514Z,-5.60
2019-01-24T23:53:51.486Z,-5.59
2019-01-24T23:56:18.234Z,-5.59
2019-01-24T23:58:44.767Z,-5.62
